Terminal Aerodrome Forecast
Issued by NWS

Home | Current Version | Previous Version | Text Only | Print | Product List | Glossary On
Versions: 1 2 3 4 5 6 7 8 9 10 11 12 13
000
FTAK31 PAJN 230535
TAFAYA
TAF
PAYA 230535Z 2306/2406 VRB02KT P6SM FEW015 BKN110
     FM232000 23005KT P6SM FEW030 SCT100
     FM240200 31005KT P6SM FEW120
      AMD LTD TO CLD VIS AND WIND=

USA.gov is the U.S. government's official web portal to all federal, state and local government web resources and services.